Mijas, Spain
Current Conditions -  °F | °C
As of 7:30 PM on Saturday 25 Oct 2014 (Local Time) from LEMG Reporting Station
Clear Clear  
Wind Chill: 70°   Ceiling: Unl
Heat Index: 70°   Visibility: 6mi
Dew Point: 54°   Wind: 0mph
Humidity: 56%   Direction: NA
Pressure: 30.09"   Gusts: NA
Location:  36.6°N, 4.64°W
Report Text: LEMG 251730Z 00000KT CAVOK 21/12 Q1019 NOSIG
Loading
Personal Weather Stations






























Interactive Weather Map
Tropical Storm Tracking
New forecast layout! Learn more

10-Day Weather Forecast

Advertisements
Track Severe Weather on mobile